createdAt,value
2022-12-29T00:01:12.163Z,4.24
2022-12-29T00:03:42.465Z,4.25
2022-12-29T00:06:13.000Z,4.21
2022-12-29T00:08:43.136Z,4.24
2022-12-29T00:11:18.686Z,4.23
2022-12-29T00:14:07.954Z,4.16
2022-12-29T00:16:41.197Z,4.22
2022-12-29T00:19:32.219Z,4.29
2022-12-29T00:22:20.823Z,4.31
2022-12-29T00:25:03.058Z,4.29
2022-12-29T00:27:52.509Z,4.34
2022-12-29T00:30:42.695Z,4.35
2022-12-29T00:33:39.565Z,4.37
2022-12-29T00:36:16.111Z,4.28
2022-12-29T00:39:20.506Z,4.38
2022-12-29T00:42:09.021Z,4.26
2022-12-29T00:44:39.174Z,4.35
2022-12-29T00:47:09.257Z,4.39
2022-12-29T00:49:39.401Z,4.41
2022-12-29T00:52:12.482Z,4.37
2022-12-29T00:54:42.832Z,4.34
2022-12-29T00:57:13.790Z,4.30
2022-12-29T00:59:44.035Z,4.30
2022-12-29T01:02:14.391Z,4.33
2022-12-29T01:04:44.713Z,4.25
2022-12-29T01:07:14.865Z,4.33
2022-12-29T01:10:03.744Z,4.29
2022-12-29T01:12:46.106Z,4.31
2022-12-29T01:15:16.485Z,4.21
2022-12-29T01:17:47.077Z,4.29
2022-12-29T01:20:17.538Z,4.14
2022-12-29T01:22:48.572Z,4.21
2022-12-29T01:25:18.782Z,4.25
2022-12-29T01:27:48.956Z,4.20
2022-12-29T01:30:19.133Z,4.24
2022-12-29T01:32:49.306Z,4.27
2022-12-29T01:35:19.642Z,4.23
2022-12-29T01:37:49.761Z,4.20
2022-12-29T01:40:20.002Z,4.11
2022-12-29T01:42:50.247Z,4.14
2022-12-29T01:45:20.462Z,4.12
2022-12-29T01:47:58.718Z,4.06
2022-12-29T01:50:36.355Z,4.09
2022-12-29T01:53:10.604Z,4.14
2022-12-29T01:55:59.248Z,4.12
2022-12-29T01:58:33.691Z,4.06
2022-12-29T02:01:05.358Z,4.14
2022-12-29T02:03:37.527Z,4.14
2022-12-29T02:06:23.825Z,4.11
2022-12-29T02:08:56.401Z,4.09
2022-12-29T02:11:29.822Z,4.12
2022-12-29T02:14:03.597Z,4.02
2022-12-29T02:16:45.896Z,4.14
2022-12-29T02:19:15.990Z,4.15
2022-12-29T02:22:19.002Z,4.17
2022-12-29T02:25:22.006Z,4.13
2022-12-29T02:27:59.551Z,4.14
2022-12-29T02:31:11.457Z,4.15
2022-12-29T02:33:53.297Z,4.13
2022-12-29T02:36:41.593Z,4.16
2022-12-29T02:39:39.248Z,4.13
2022-12-29T02:42:23.403Z,4.10
2022-12-29T02:45:52.648Z,4.07
2022-12-29T02:48:46.708Z,4.07
2022-12-29T02:51:24.975Z,4.01
2022-12-29T02:54:14.924Z,4.00
2022-12-29T02:56:45.100Z,4.10
2022-12-29T02:59:15.595Z,4.08
2022-12-29T03:02:19.635Z,4.12
2022-12-29T03:05:02.447Z,4.10
2022-12-29T03:07:44.052Z,4.08
2022-12-29T03:10:33.068Z,4.06
2022-12-29T03:13:32.190Z,3.96
2022-12-29T03:16:13.707Z,4.09
2022-12-29T03:18:51.611Z,4.03
2022-12-29T03:22:02.012Z,4.05
2022-12-29T03:24:37.475Z,4.13
2022-12-29T03:27:12.691Z,4.12
2022-12-29T03:29:53.515Z,4.13
2022-12-29T03:32:30.121Z,4.03
2022-12-29T03:35:01.859Z,4.20
2022-12-29T03:37:38.964Z,4.17
2022-12-29T03:40:09.201Z,4.26
2022-12-29T03:42:40.760Z,4.21
2022-12-29T03:45:12.266Z,4.24
2022-12-29T03:47:42.537Z,4.22
2022-12-29T03:50:15.844Z,4.22
2022-12-29T03:52:46.056Z,4.25
2022-12-29T03:55:16.285Z,4.23
2022-12-29T03:57:46.433Z,4.26
2022-12-29T04:00:16.919Z,4.30
2022-12-29T04:02:48.661Z,4.28
2022-12-29T04:05:19.085Z,4.26
2022-12-29T04:07:49.273Z,4.25
2022-12-29T04:10:19.445Z,4.38
2022-12-29T04:12:49.512Z,4.38
2022-12-29T04:15:19.730Z,4.38
2022-12-29T04:17:49.822Z,4.38
2022-12-29T04:20:38.701Z,4.40
2022-12-29T04:23:12.100Z,4.42
2022-12-29T04:25:42.394Z,4.30
2022-12-29T04:28:12.577Z,4.31
2022-12-29T04:30:44.488Z,4.46
2022-12-29T04:33:15.007Z,4.33
2022-12-29T04:35:45.740Z,4.46
2022-12-29T04:38:16.736Z,4.47
2022-12-29T04:40:48.738Z,4.44
2022-12-29T04:43:20.430Z,4.46
2022-12-29T04:45:50.604Z,4.45
2022-12-29T04:48:20.797Z,4.44
2022-12-29T04:50:51.227Z,4.44
2022-12-29T04:53:21.420Z,4.41
2022-12-29T04:55:53.094Z,4.44
2022-12-29T04:58:23.622Z,4.50
2022-12-29T05:00:53.819Z,4.45
2022-12-29T05:03:24.060Z,4.46
2022-12-29T05:05:56.150Z,4.41
2022-12-29T05:08:28.599Z,4.47
2022-12-29T05:10:58.919Z,4.42
2022-12-29T05:13:29.044Z,4.43
2022-12-29T05:15:59.232Z,4.42
2022-12-29T05:18:29.371Z,4.43
2022-12-29T05:20:59.684Z,4.42
2022-12-29T05:23:29.807Z,4.36
2022-12-29T05:25:59.940Z,4.42
2022-12-29T05:28:30.106Z,4.34
2022-12-29T05:31:00.402Z,4.35
2022-12-29T05:33:30.621Z,4.40
2022-12-29T05:36:08.590Z,4.36
2022-12-29T05:38:38.660Z,4.34
2022-12-29T05:41:08.942Z,4.37
2022-12-29T05:43:39.079Z,4.40
2022-12-29T05:46:09.219Z,4.37
2022-12-29T05:48:39.386Z,4.38
2022-12-29T05:51:09.540Z,4.37
2022-12-29T05:53:39.676Z,4.33
2022-12-29T05:56:09.888Z,4.37
2022-12-29T05:58:40.000Z,4.22
2022-12-29T06:01:10.667Z,4.24
2022-12-29T06:03:47.746Z,4.18
2022-12-29T06:06:18.508Z,4.12
2022-12-29T06:08:48.713Z,4.30
2022-12-29T06:11:18.923Z,4.17
2022-12-29T06:13:49.108Z,4.32
2022-12-29T06:16:19.325Z,4.35
2022-12-29T06:18:49.545Z,4.31
2022-12-29T06:21:19.757Z,4.37
2022-12-29T06:23:50.069Z,4.35
2022-12-29T06:26:20.331Z,4.37
2022-12-29T06:28:50.618Z,4.37
2022-12-29T06:31:20.873Z,4.28
2022-12-29T06:33:51.141Z,4.30
2022-12-29T06:36:21.344Z,4.41
2022-12-29T06:38:53.683Z,4.43
2022-12-29T06:41:28.449Z,4.34
2022-12-29T06:44:02.278Z,4.35
2022-12-29T06:46:32.628Z,4.41
2022-12-29T06:49:03.488Z,4.46
2022-12-29T06:51:33.583Z,4.43
2022-12-29T06:54:03.822Z,4.44
2022-12-29T06:56:34.126Z,4.34
2022-12-29T06:59:04.464Z,4.43
2022-12-29T07:01:35.655Z,4.44
2022-12-29T07:04:06.094Z,4.44
2022-12-29T07:06:36.340Z,4.48
2022-12-29T07:09:06.514Z,4.34
2022-12-29T07:11:37.246Z,4.50
2022-12-29T07:14:07.506Z,4.45
2022-12-29T07:16:38.399Z,4.43
2022-12-29T07:19:08.553Z,4.41
2022-12-29T07:21:38.757Z,4.49
2022-12-29T07:24:14.299Z,4.47
2022-12-29T07:26:44.573Z,4.46
2022-12-29T07:29:14.760Z,4.44
2022-12-29T07:31:45.062Z,4.48
2022-12-29T07:34:15.280Z,4.40
2022-12-29T07:36:45.531Z,4.52
2022-12-29T07:39:15.761Z,4.54
2022-12-29T07:41:45.983Z,4.56
2022-12-29T07:44:16.117Z,4.61
2022-12-29T07:46:56.513Z,4.58
2022-12-29T07:49:27.984Z,4.60
2022-12-29T07:51:58.235Z,4.64
2022-12-29T07:54:28.426Z,4.65
2022-12-29T07:57:01.352Z,4.67
2022-12-29T07:59:31.659Z,4.58
2022-12-29T08:02:02.362Z,4.68
2022-12-29T08:04:32.819Z,4.70
2022-12-29T08:07:03.154Z,4.71
2022-12-29T08:09:33.345Z,4.74
2022-12-29T08:12:03.632Z,4.73
2022-12-29T08:14:33.866Z,4.76
2022-12-29T08:17:03.979Z,4.67
2022-12-29T08:19:34.134Z,4.78
2022-12-29T08:22:05.048Z,4.75
2022-12-29T08:24:35.220Z,4.78
2022-12-29T08:27:13.395Z,4.68
2022-12-29T08:29:50.062Z,4.85
2022-12-29T08:32:20.261Z,4.87
2022-12-29T08:34:51.777Z,4.92
2022-12-29T08:37:26.283Z,4.97
2022-12-29T08:40:04.909Z,4.92
2022-12-29T08:42:35.233Z,5.06
2022-12-29T08:45:05.924Z,5.10
2022-12-29T08:47:36.133Z,5.11
2022-12-29T08:50:06.953Z,5.15
2022-12-29T08:52:37.139Z,5.14
2022-12-29T08:55:07.635Z,5.07
2022-12-29T08:57:37.923Z,5.22
2022-12-29T09:00:08.833Z,5.29
2022-12-29T09:02:39.303Z,5.30
2022-12-29T09:05:10.819Z,5.33
2022-12-29T09:07:41.285Z,5.32
2022-12-29T09:10:11.646Z,5.36
2022-12-29T09:12:41.829Z,5.31
2022-12-29T09:15:13.265Z,5.42
2022-12-29T09:17:46.673Z,5.42
2022-12-29T09:20:19.756Z,5.49
2022-12-29T09:22:50.474Z,5.53
2022-12-29T09:25:21.091Z,5.56
2022-12-29T09:27:54.848Z,5.57
2022-12-29T09:30:25.388Z,5.59
2022-12-29T09:32:55.659Z,5.59
2022-12-29T09:35:25.869Z,5.62
2022-12-29T09:37:56.170Z,5.60
2022-12-29T09:40:33.980Z,5.63
2022-12-29T09:43:22.250Z,5.67
2022-12-29T09:46:15.195Z,5.70
2022-12-29T09:48:51.409Z,5.76
2022-12-29T09:51:25.121Z,5.75
2022-12-29T09:54:00.794Z,5.80
2022-12-29T09:56:31.000Z,5.79
2022-12-29T09:59:17.030Z,5.87
2022-12-29T10:02:08.291Z,5.81
2022-12-29T10:04:38.774Z,5.85
2022-12-29T10:07:36.172Z,5.93
2022-12-29T10:10:21.571Z,6.01
2022-12-29T10:13:01.659Z,6.04
2022-12-29T10:16:01.050Z,6.05
2022-12-29T10:18:42.909Z,6.05
2022-12-29T10:21:22.083Z,6.10
2022-12-29T10:23:54.270Z,6.06
2022-12-29T10:26:29.826Z,6.09
2022-12-29T10:29:05.371Z,6.09
2022-12-29T10:31:41.987Z,5.93
2022-12-29T10:34:39.779Z,6.07
2022-12-29T10:37:26.486Z,6.10
2022-12-29T10:40:01.766Z,6.08
2022-12-29T10:42:46.359Z,6.10
2022-12-29T10:45:19.889Z,6.11
2022-12-29T10:48:13.352Z,6.12
2022-12-29T10:50:44.320Z,6.11
2022-12-29T10:53:23.941Z,6.15
2022-12-29T10:55:56.070Z,6.13
2022-12-29T10:58:27.265Z,6.16
2022-12-29T11:00:57.512Z,6.16
2022-12-29T11:03:49.809Z,6.24
2022-12-29T11:06:27.121Z,6.27
2022-12-29T11:09:11.213Z,6.33
2022-12-29T11:11:41.361Z,6.42
2022-12-29T11:14:19.539Z,6.46
2022-12-29T11:17:00.802Z,6.58
2022-12-29T11:19:40.586Z,6.85
2022-12-29T11:22:28.719Z,7.53
2022-12-29T11:25:11.307Z,7.63
2022-12-29T11:27:57.223Z,7.37
2022-12-29T11:30:31.541Z,7.08
2022-12-29T11:33:04.629Z,6.91
2022-12-29T11:35:44.737Z,6.80
2022-12-29T11:38:24.627Z,6.76
2022-12-29T11:40:54.901Z,6.70
2022-12-29T11:43:30.653Z,6.65
2022-12-29T11:46:04.709Z,6.61
2022-12-29T11:48:40.949Z,6.50
2022-12-29T11:51:12.842Z,6.48
2022-12-29T11:53:52.511Z,6.48
2022-12-29T11:56:40.345Z,6.47
2022-12-29T11:59:56.242Z,6.48
2022-12-29T12:02:43.688Z,6.45
2022-12-29T12:05:38.788Z,6.37
2022-12-29T12:08:21.205Z,6.38
2022-12-29T12:10:59.677Z,6.38
2022-12-29T12:13:47.167Z,6.32
2022-12-29T12:16:22.512Z,6.34
2022-12-29T12:19:05.382Z,6.34
2022-12-29T12:21:46.343Z,6.36
2022-12-29T12:24:28.607Z,6.38
2022-12-29T12:27:10.458Z,6.42
2022-12-29T12:30:04.317Z,6.45
2022-12-29T12:32:49.834Z,6.45
2022-12-29T12:35:23.034Z,6.48
2022-12-29T12:38:01.975Z,6.52
2022-12-29T12:40:50.461Z,6.50
2022-12-29T12:43:50.056Z,6.58
2022-12-29T12:46:28.784Z,6.62
2022-12-29T12:49:23.241Z,6.64
2022-12-29T12:52:05.171Z,6.66
2022-12-29T12:54:38.875Z,6.66
2022-12-29T12:57:27.384Z,6.64
2022-12-29T13:00:13.778Z,6.68
2022-12-29T13:03:05.649Z,6.68
2022-12-29T13:06:10.863Z,6.69
2022-12-29T13:09:18.445Z,6.72
2022-12-29T13:12:04.079Z,6.74
2022-12-29T13:15:06.508Z,6.77
2022-12-29T13:18:07.516Z,6.81
2022-12-29T13:21:04.844Z,6.78
2022-12-29T13:23:56.416Z,6.78
2022-12-29T13:26:35.108Z,6.78
2022-12-29T13:29:25.973Z,6.73
2022-12-29T13:32:02.437Z,6.69
2022-12-29T13:34:48.497Z,6.73
2022-12-29T13:37:21.731Z,6.73
2022-12-29T13:40:20.047Z,6.70
2022-12-29T13:42:51.113Z,6.68
2022-12-29T13:45:25.257Z,6.67
2022-12-29T13:48:25.605Z,6.69
2022-12-29T13:51:01.327Z,6.67
2022-12-29T13:53:44.169Z,6.56
2022-12-29T13:56:21.891Z,6.64
2022-12-29T13:58:58.176Z,6.68
2022-12-29T14:01:48.516Z,6.67
2022-12-29T14:04:28.544Z,6.65
2022-12-29T14:07:05.684Z,6.69
2022-12-29T14:09:41.695Z,6.70
2022-12-29T14:12:34.012Z,6.66
2022-12-29T14:15:23.455Z,6.59
2022-12-29T14:18:14.386Z,6.69
2022-12-29T14:21:10.090Z,6.67
2022-12-29T14:23:46.276Z,6.65
2022-12-29T14:26:35.609Z,6.66
2022-12-29T14:29:41.229Z,6.66
2022-12-29T14:32:26.356Z,6.61
2022-12-29T14:35:16.665Z,6.58
2022-12-29T14:37:47.542Z,6.56
2022-12-29T14:40:28.057Z,6.45
2022-12-29T14:42:58.873Z,6.52
2022-12-29T14:45:34.412Z,6.51
2022-12-29T14:48:28.077Z,6.51
2022-12-29T14:50:58.415Z,6.50
2022-12-29T14:53:52.037Z,6.49
2022-12-29T14:56:30.605Z,6.46
2022-12-29T14:59:04.240Z,6.41
2022-12-29T15:01:41.961Z,6.42
2022-12-29T15:04:21.972Z,6.42
2022-12-29T15:06:53.656Z,6.37
2022-12-29T15:09:38.451Z,6.34
2022-12-29T15:12:20.770Z,6.34
2022-12-29T15:14:55.449Z,6.29
2022-12-29T15:17:27.658Z,6.23
2022-12-29T15:20:00.491Z,6.18
2022-12-29T15:22:31.733Z,6.15
2022-12-29T15:25:01.935Z,6.11
2022-12-29T15:27:32.147Z,6.08
2022-12-29T15:30:08.550Z,6.07
2022-12-29T15:32:45.390Z,6.03
2022-12-29T15:35:37.249Z,5.98
2022-12-29T15:38:31.165Z,5.98
2022-12-29T15:41:25.072Z,5.99
2022-12-29T15:44:18.169Z,5.99
2022-12-29T15:46:48.476Z,5.97
2022-12-29T15:49:19.455Z,5.97
2022-12-29T15:51:50.779Z,5.93
2022-12-29T15:54:24.354Z,6.01
2022-12-29T15:56:54.520Z,6.04
2022-12-29T15:59:34.572Z,6.05
2022-12-29T16:02:12.472Z,6.05
2022-12-29T16:05:09.151Z,6.04
2022-12-29T16:07:41.760Z,6.04
2022-12-29T16:10:38.589Z,6.04
2022-12-29T16:13:32.255Z,6.01
2022-12-29T16:16:10.582Z,6.04
2022-12-29T16:18:40.889Z,6.02
2022-12-29T16:21:26.621Z,6.01
2022-12-29T16:24:02.516Z,6.04
2022-12-29T16:26:33.246Z,6.06
2022-12-29T16:29:07.759Z,6.04
2022-12-29T16:31:51.994Z,6.08
2022-12-29T16:34:29.793Z,6.05
2022-12-29T16:37:05.415Z,6.06
2022-12-29T16:39:40.806Z,6.11
2022-12-29T16:42:39.842Z,6.10
2022-12-29T16:45:32.470Z,6.11
2022-12-29T16:48:08.565Z,6.10
2022-12-29T16:50:41.416Z,6.11
2022-12-29T16:53:22.862Z,6.08
2022-12-29T16:55:54.484Z,6.10
2022-12-29T16:58:32.699Z,6.08
2022-12-29T17:01:07.104Z,6.11
2022-12-29T17:03:43.976Z,6.12
2022-12-29T17:06:17.596Z,6.16
2022-12-29T17:08:49.196Z,6.12
2022-12-29T17:11:42.500Z,6.13
2022-12-29T17:14:35.337Z,6.11
2022-12-29T17:17:12.394Z,6.12
2022-12-29T17:19:47.338Z,6.14
2022-12-29T17:22:21.256Z,6.13
2022-12-29T17:24:53.149Z,6.13
2022-12-29T17:27:31.650Z,6.13
2022-12-29T17:30:14.687Z,6.21
2022-12-29T17:32:58.442Z,6.17
2022-12-29T17:35:28.887Z,6.17
2022-12-29T17:37:59.023Z,6.21
2022-12-29T17:40:33.251Z,6.24
2022-12-29T17:43:03.531Z,6.20
2022-12-29T17:45:33.853Z,6.23
2022-12-29T17:48:13.260Z,6.26
2022-12-29T17:50:44.742Z,6.27
2022-12-29T17:53:22.092Z,6.27
2022-12-29T17:55:52.988Z,6.30
2022-12-29T17:58:31.914Z,6.31
2022-12-29T18:01:03.226Z,6.33
2022-12-29T18:03:35.595Z,6.34
2022-12-29T18:06:08.637Z,6.27
2022-12-29T18:08:40.503Z,6.34
2022-12-29T18:11:25.915Z,6.34
2022-12-29T18:13:56.735Z,6.34
2022-12-29T18:16:27.213Z,6.34
2022-12-29T18:18:57.511Z,6.28
2022-12-29T18:21:27.736Z,6.35
2022-12-29T18:23:57.995Z,6.34
2022-12-29T18:26:31.828Z,6.38
2022-12-29T18:29:02.286Z,6.40
2022-12-29T18:31:34.459Z,6.40
2022-12-29T18:34:13.551Z,6.41
2022-12-29T18:36:43.915Z,6.42
2022-12-29T18:39:14.360Z,6.41
2022-12-29T18:41:45.154Z,6.41
2022-12-29T18:44:15.280Z,6.42
2022-12-29T18:46:45.476Z,6.35
2022-12-29T18:49:15.589Z,6.42
2022-12-29T18:51:45.749Z,6.39
2022-12-29T18:54:30.843Z,6.40
2022-12-29T18:57:01.100Z,6.42
2022-12-29T18:59:31.193Z,6.43
2022-12-29T19:02:01.414Z,6.44
2022-12-29T19:04:31.629Z,6.44
2022-12-29T19:07:01.914Z,6.44
2022-12-29T19:09:32.012Z,6.46
2022-12-29T19:12:02.155Z,6.43
2022-12-29T19:14:32.312Z,6.48
2022-12-29T19:17:02.468Z,6.50
2022-12-29T19:19:32.599Z,6.47
2022-12-29T19:22:02.771Z,6.49
2022-12-29T19:24:33.028Z,6.50
2022-12-29T19:27:03.257Z,6.52
2022-12-29T19:29:33.398Z,6.52
2022-12-29T19:32:03.672Z,6.50
2022-12-29T19:34:33.859Z,6.55
2022-12-29T19:37:04.842Z,6.53
2022-12-29T19:39:35.006Z,6.46
2022-12-29T19:42:05.841Z,6.49
2022-12-29T19:44:35.989Z,6.54
2022-12-29T19:47:06.289Z,6.53
2022-12-29T19:49:36.475Z,6.53
2022-12-29T19:52:06.696Z,6.53
2022-12-29T19:54:36.843Z,6.54
2022-12-29T19:57:06.976Z,6.54
2022-12-29T19:59:37.133Z,6.51
2022-12-29T20:02:18.103Z,6.53
2022-12-29T20:04:48.566Z,6.53
2022-12-29T20:07:19.616Z,6.48
2022-12-29T20:09:50.622Z,6.40
2022-12-29T20:12:27.304Z,6.45
2022-12-29T20:14:59.238Z,6.44
2022-12-29T20:18:02.439Z,6.38
2022-12-29T20:20:19.735Z,6.35
2022-12-29T20:22:49.803Z,6.34
2022-12-29T20:25:44.153Z,6.31
2022-12-29T20:28:10.447Z,6.35
2022-12-29T20:30:41.158Z,6.33
2022-12-29T20:33:11.383Z,6.36
2022-12-29T20:35:41.557Z,6.39
2022-12-29T20:38:11.769Z,6.42
2022-12-29T20:40:46.636Z,6.45
2022-12-29T20:43:17.247Z,6.47
2022-12-29T20:45:49.097Z,6.41
2022-12-29T20:48:19.345Z,6.52
2022-12-29T20:50:49.675Z,6.52
2022-12-29T20:53:19.907Z,6.54
2022-12-29T20:55:51.226Z,6.57
2022-12-29T20:58:24.249Z,6.55
2022-12-29T21:00:56.099Z,6.49
2022-12-29T21:03:26.352Z,6.53
2022-12-29T21:05:56.769Z,6.56
2022-12-29T21:08:30.175Z,6.56
2022-12-29T21:11:00.814Z,6.52
2022-12-29T21:13:31.199Z,6.48
2022-12-29T21:16:07.840Z,6.48
2022-12-29T21:18:38.057Z,6.47
2022-12-29T21:21:14.779Z,6.44
2022-12-29T21:23:45.283Z,6.42
2022-12-29T21:26:19.658Z,6.41
2022-12-29T21:28:51.015Z,6.39
2022-12-29T21:31:28.391Z,6.41
2022-12-29T21:33:58.684Z,6.34
2022-12-29T21:36:29.422Z,6.35
2022-12-29T21:38:59.654Z,6.33
2022-12-29T21:41:29.726Z,6.34
2022-12-29T21:44:18.338Z,6.30
2022-12-29T21:46:48.742Z,6.23
2022-12-29T21:49:18.977Z,6.32
2022-12-29T21:51:52.475Z,6.28
2022-12-29T21:54:44.439Z,6.27
2022-12-29T21:57:37.416Z,6.24
2022-12-29T22:00:27.843Z,6.26
2022-12-29T22:03:22.444Z,6.27
2022-12-29T22:06:12.074Z,6.27
2022-12-29T22:09:00.810Z,6.27
2022-12-29T22:11:49.411Z,6.22
2022-12-29T22:14:19.554Z,6.21
2022-12-29T22:16:49.746Z,6.25
2022-12-29T22:19:19.951Z,6.27
2022-12-29T22:21:50.192Z,6.30
2022-12-29T22:24:20.339Z,6.28
2022-12-29T22:26:50.431Z,6.24
2022-12-29T22:29:20.709Z,6.19
2022-12-29T22:31:50.817Z,6.29
2022-12-29T22:34:20.969Z,6.34
2022-12-29T22:36:51.575Z,6.30
2022-12-29T22:39:21.766Z,6.33
2022-12-29T22:41:51.920Z,6.31
2022-12-29T22:44:22.672Z,6.23
2022-12-29T22:46:52.854Z,6.29
2022-12-29T22:49:23.154Z,6.32
2022-12-29T22:51:53.340Z,6.32
2022-12-29T22:54:23.567Z,6.36
2022-12-29T22:56:53.882Z,6.34
2022-12-29T22:59:24.008Z,6.28
2022-12-29T23:01:54.329Z,6.34
2022-12-29T23:07:14.850Z,6.38
2022-12-29T23:09:45.075Z,6.32
2022-12-29T23:12:15.300Z,6.33
2022-12-29T23:14:45.398Z,6.34
2022-12-29T23:17:15.689Z,6.34
2022-12-29T23:19:45.830Z,6.33
2022-12-29T23:22:15.982Z,6.34
2022-12-29T23:24:46.149Z,6.34
2022-12-29T23:27:16.394Z,6.34
2022-12-29T23:29:46.614Z,6.35
2022-12-29T23:32:16.763Z,6.34
2022-12-29T23:34:46.883Z,6.37
2022-12-29T23:37:17.100Z,6.33
2022-12-29T23:39:47.251Z,6.34
2022-12-29T23:42:17.471Z,6.37
2022-12-29T23:44:47.684Z,6.35
2022-12-29T23:47:17.911Z,6.36
2022-12-29T23:49:48.000Z,6.37
2022-12-29T23:52:18.133Z,6.32
2022-12-29T23:54:49.704Z,6.29
2022-12-29T23:57:19.835Z,6.23
2022-12-29T23:59:49.925Z,6.22
